Sunday, October 21, 2018, 9:21 PM EDT
Back to Local

KGFL, Floyd Bennett Memorial Airport

Location: Queensbury, NY, United States Lat: 43.333
Local Time: 9:21 PM EDT ( 1:21 GMT) Lon: -73.617
Time Zone: US/Eastern Elev: 328 ft

Show me the last for .
Show Decoded

2018-10-21 20:53 METAR KGFL 220053Z AUTO 32007KT 10SM BKN055 03/M07 A3006 RMK AO2 SLP187
                 T00281072 =
2018-10-21 19:53 METAR KGFL 212353Z AUTO 00000KT 10SM BKN055 01/M06 A3006 RMK AO2 SLP186
                 T00111056 10061 20006 51023 =
2018-10-21 18:53 METAR KGFL 212253Z AUTO 30004KT 10SM SCT055 02/M07 A3004 RMK AO2 SLP181
                 T00171067 =
2018-10-21 17:53 METAR KGFL 212153Z AUTO 33010G18KT 10SM FEW060 03/M07 A3001 RMK AO2 SLP170
                 T00331072 =
2018-10-21 16:53 METAR KGFL 212053Z AUTO 32010KT 10SM FEW065 04/M07 A2999 RMK AO2 SLP161
                 T00441072 53012 =
2018-10-21 15:53 METAR KGFL 211953Z AUTO 32013G22KT 10SM FEW060 05/M08 A2997 RMK AO2 SLP156
                 T00501078 =
2018-10-21 14:53 METAR KGFL 211853Z AUTO 32011G23KT 10SM CLR 06/M07 A2996 RMK AO2 SLP151
                 T00561072 =
2018-10-21 13:53 METAR KGFL 211753Z AUTO 32013G22KT 10SM SCT055 05/M07 A2995 RMK AO2 PK WND
                 29026/1658 SLP148 T00501067 10056 20028 50004 =
2018-10-21 12:53 METAR KGFL 211653Z AUTO 30018G28KT 10SM BKN050 05/M07 A2996 RMK AO2 PK WND
                 29028/1651 SLP150 T00501067 =
2018-10-21 11:53 METAR KGFL 211553Z AUTO 32011G19KT 10SM BKN049 04/M07 A2996 RMK AO2 SLP150
                 T00391067 =
2018-10-21 10:53 METAR KGFL 211453Z AUTO 32012G20KT 10SM OVC041 03/M04 A2994 RMK AO2 SLP144
                 T00331044 51029 =
2018-10-21 09:53 METAR KGFL 211353Z AUTO 34014G20KT 10SM BKN043 03/M05 A2993 RMK AO2 PK WND
                 35027/1309 SLP139 T00331050 =
2018-10-21 08:53 METAR KGFL 211253Z AUTO 32014G22KT 10SM OVC042 03/M05 A2989 RMK AO2 SLP128
                 T00331050 =
2018-10-21 07:53 METAR KGFL 211153Z AUTO 32012KT 10SM BKN041 03/M03 A2985 RMK AO2 SLP115
                 T00331033 10083 20033 53046 =
2018-10-21 06:53 METAR KGFL 211053Z AUTO 32015G24KT 10SM CLR 03/M04 A2980 RMK AO2 SLP098
                 T00331039 =
2018-10-21 05:53 METAR KGFL 210953Z AUTO 32009KT 10SM CLR 04/M03 A2976 RMK AO2 SLP080 T00391028 =
2018-10-21 04:53 METAR KGFL 210853Z AUTO 32009KT 10SM CLR 05/M03 A2972 RMK AO2 SLP066 T00501028
                 53022 =
2018-10-21 03:53 METAR KGFL 210753Z AUTO 33010KT 10SM SCT047 06/M02 A2969 RMK AO2 SLP057
                 T00611022 =
2018-10-21 02:53 METAR KGFL 210653Z AUTO 34009KT 10SM BKN041 BKN048 07/M01 A2967 RMK AO2 SLP051
                 T00721006 =
2018-10-21 01:53 METAR KGFL 210553Z AUTO 32007KT 10SM SCT060 SCT120 08/01 A2965 RMK AO2 SLP043
                 T00830006 10117 20067 53011 =
2018-10-21 00:53 METAR KGFL 210453Z AUTO 31011KT 10SM BKN110 09/01 A2961 RMK AO2 SLP030 T00890011
                 401610067 =
2018-10-20 23:53 METAR KGFL 210353Z AUTO 31004KT 10SM OVC110 08/02 A2962 RMK AO2 SLP032 T00780022
                 =
2018-10-20 22:53 METAR KGFL 210253Z AUTO 33004KT 10SM CLR 08/02 A2962 RMK AO2 SLP032 T00830022
                 53010 =
2018-10-20 21:53 METAR KGFL 210153Z AUTO 00000KT 10SM FEW120 09/01 A2960 RMK AO2 SLP026 T00940011
                 =

Support USWX by starting your Amazon purchase here.